Time;durP1;ratioP1;P1;durP2;ratioP2;P2;SDS_P1;SDS_P2;PMS_P1;PMS_P2;Temp;Humidity;BMP_temperature;BMP_pressure;BME280_temperature;BME280_humidity;BME280_pressure;Samples;Min_cycle;Max_cycle;Signal;HPM_P1;HPM_P2
2023/02/06 00:01:36;;;;;;;32.38;5.68;;;3.50;99.90;;;;;;4940783;28;92553;-73
2023/02/06 00:04:03;;;;;;;35.85;6.22;;;3.50;99.90;;;;;;4958141;28;92841;-73
2023/02/06 00:06:31;;;;;;;34.58;5.55;;;3.40;99.90;;;;;;4940428;28;95964;-73
2023/02/06 00:08:58;;;;;;;33.83;5.88;;;3.40;99.90;;;;;;4958513;28;93193;-73
2023/02/06 00:11:26;;;;;;;32.10;5.20;;;3.40;99.90;;;;;;4957807;28;92411;-73
2023/02/06 00:13:53;;;;;;;25.02;5.68;;;3.50;99.90;;;;;;4958123;28;96853;-73
2023/02/06 00:16:25;;;;;;;30.75;5.00;;;3.50;99.90;;;;;;4923048;28;98289;-73
2023/02/06 00:18:54;;;;;;;31.58;5.13;;;3.50;99.90;;;;;;4958120;28;95485;-72
2023/02/06 00:21:23;;;;;;;31.75;5.50;;;3.50;99.90;;;;;;4956778;28;92550;-72
2023/02/06 00:23:52;;;;;;;27.25;5.30;;;3.50;99.90;;;;;;4956789;28;92464;-73
2023/02/06 00:26:20;;;;;;;32.83;5.82;;;3.50;99.90;;;;;;4956183;28;93738;-73
2023/02/06 00:28:47;;;;;;;27.38;5.70;;;3.50;99.90;;;;;;4957902;28;93067;-73
2023/02/06 00:31:16;;;;;;;42.55;5.80;;;3.60;99.90;;;;;;4956722;28;92545;-73
2023/02/06 00:33:43;;;;;;;35.38;6.25;;;3.60;99.90;;;;;;4956909;28;91823;-73
2023/02/06 00:36:10;;;;;;;26.90;4.85;;;3.60;99.90;;;;;;4940281;28;95842;-73
2023/02/06 00:38:37;;;;;;;26.10;4.60;;;3.70;99.90;;;;;;4955754;28;95567;-73
2023/02/06 00:41:05;;;;;;;27.02;6.10;;;3.60;99.90;;;;;;4955542;28;94845;-73
2023/02/06 00:43:32;;;;;;;28.23;4.60;;;3.70;99.90;;;;;;4940109;28;92973;-73
2023/02/06 00:45:59;;;;;;;26.95;4.72;;;3.70;99.90;;;;;;4956349;28;93490;-73
2023/02/06 00:48:26;;;;;;;24.05;4.88;;;3.70;99.90;;;;;;4939656;28;95677;-73
2023/02/06 00:50:54;;;;;;;28.65;4.70;;;3.70;99.90;;;;;;4956148;28;92493;-73
2023/02/06 00:53:21;;;;;;;31.38;4.97;;;3.70;99.90;;;;;;4955921;28;92529;-72
2023/02/06 00:55:48;;;;;;;28.85;5.55;;;3.70;99.90;;;;;;4957512;28;93399;-73
2023/02/06 00:58:15;;;;;;;27.35;4.63;;;3.70;99.90;;;;;;4957832;28;91716;-73
2023/02/06 01:00:42;;;;;;;27.48;5.22;;;3.70;99.90;;;;;;4955402;28;92491;-73
2023/02/06 01:03:09;;;;;;;26.90;4.68;;;3.70;99.90;;;;;;4939888;28;92455;-73
2023/02/06 01:05:37;;;;;;;22.67;4.60;;;3.70;99.90;;;;;;4954100;28;98413;-73
2023/02/06 01:08:04;;;;;;;25.13;5.45;;;3.70;99.90;;;;;;4957092;28;95368;-73
2023/02/06 01:10:31;;;;;;;25.85;4.78;;;3.70;99.90;;;;;;4956007;28;92511;-73
2023/02/06 01:12:59;;;;;;;31.90;6.00;;;3.70;99.90;;;;;;4955779;28;92467;-73
2023/02/06 01:15:26;;;;;;;29.23;5.70;;;3.80;99.90;;;;;;4938963;28;93194;-73
2023/02/06 01:17:53;;;;;;;22.92;4.40;;;3.80;99.90;;;;;;4955694;28;95763;-73
2023/02/06 01:20:21;;;;;;;25.25;4.75;;;3.80;99.90;;;;;;4956065;28;92496;-73
2023/02/06 01:22:48;;;;;;;22.30;4.97;;;3.80;99.90;;;;;;4939896;28;93748;-73
2023/02/06 01:25:16;;;;;;;36.55;5.60;;;3.80;99.90;;;;;;4955633;28;95793;-73
2023/02/06 01:27:43;;;;;;;27.50;6.15;;;3.90;99.90;;;;;;4956778;28;93359;-73
2023/02/06 01:30:11;;;;;;;24.92;6.53;;;3.90;99.90;;;;;;4954798;28;94864;-72
2023/02/06 01:32:39;;;;;;;26.00;4.70;;;3.90;99.90;;;;;;4956954;28;93045;-73
2023/02/06 01:35:07;;;;;;;15.38;3.65;;;4.00;99.90;;;;;;4955345;28;95876;-72
2023/02/06 01:37:36;;;;;;;25.65;4.43;;;4.00;99.90;;;;;;4955282;28;92903;-72
2023/02/06 01:40:08;;;;;;;20.92;4.20;;;4.00;99.90;;;;;;4939924;28;92940;-72
2023/02/06 01:42:36;;;;;;;24.13;4.55;;;4.10;99.90;;;;;;4955181;28;92839;-72
2023/02/06 01:45:22;;;;;;;18.88;4.88;;;4.10;99.90;;;;;;4956660;28;93607;-72
2023/02/06 01:47:53;;;;;;;24.77;4.35;;;4.20;99.90;;;;;;4956689;28;93032;-72
2023/02/06 01:50:20;;;;;;;22.00;4.97;;;4.20;99.90;;;;;;4955450;28;93333;-72
2023/02/06 01:52:47;;;;;;;27.50;3.80;;;4.20;99.90;;;;;;4955016;28;92583;-72
2023/02/06 01:55:15;;;;;;;26.58;4.60;;;4.30;99.90;;;;;;4955296;28;95760;-72
2023/02/06 01:57:42;;;;;;;25.88;4.43;;;4.30;99.90;;;;;;4954584;28;97980;-73
2023/02/06 02:00:10;;;;;;;24.55;3.83;;;4.30;99.90;;;;;;4922664;28;92638;-72
2023/02/06 02:02:43;;;;;;;25.80;4.32;;;4.40;99.90;;;;;;4956485;28;92592;-73
2023/02/06 02:05:11;;;;;;;26.63;4.32;;;4.40;99.90;;;;;;4939080;28;94234;-73
2023/02/06 02:07:47;;;;;;;22.75;3.40;;;4.40;99.90;;;;;;4954595;28;94721;-72
2023/02/06 02:10:14;;;;;;;18.40;3.22;;;4.50;99.90;;;;;;4956578;28;92369;-72
2023/02/06 02:12:41;;;;;;;14.73;3.35;;;4.50;99.90;;;;;;4955209;28;92273;-72
2023/02/06 02:15:09;;;;;;;21.30;3.10;;;4.60;99.90;;;;;;4938716;28;94943;-72
2023/02/06 02:17:47;;;;;;;27.73;3.42;;;4.70;99.90;;;;;;4923241;28;94554;-72
2023/02/06 02:20:32;;;;;;;24.55;3.92;;;4.70;99.90;;;;;;4954151;28;94831;-72
2023/02/06 02:23:37;;;;;;;27.38;3.83;;;4.70;99.90;;;;;;4954999;28;92500;-72
2023/02/06 02:26:20;;;;;;;20.60;2.90;;;4.80;99.90;;;;;;4932491;28;93379;-72
2023/02/06 02:29:17;;;;;;;25.38;4.03;;;4.80;99.90;;;;;;4954315;28;94196;-72
2023/02/06 02:31:47;;;;;;;24.65;3.33;;;4.80;99.90;;;;;;4938481;28;92491;-72
2023/02/06 02:34:31;;;;;;;26.70;4.20;;;4.80;99.90;;;;;;4954883;28;92528;-72
2023/02/06 02:37:14;;;;;;;21.77;4.07;;;4.80;99.90;;;;;;4954533;28;95430;-72
2023/02/06 02:39:59;;;;;;;25.15;3.40;;;4.70;99.90;;;;;;4938565;28;94921;-72
2023/02/06 02:42:38;;;;;;;16.67;3.50;;;4.70;99.90;;;;;;4954656;28;92518;-73
2023/02/06 02:45:15;;;;;;;26.73;4.18;;;4.60;99.90;;;;;;4955183;28;92959;-73
2023/02/06 02:48:06;;;;;;;17.25;3.22;;;4.50;99.90;;;;;;4952641;28;98519;-73
2023/02/06 02:50:34;;;;;;;20.10;3.45;;;4.50;99.90;;;;;;4954313;28;97779;-72
2023/02/06 02:53:02;;;;;;;25.33;3.50;;;4.40;99.90;;;;;;4954666;28;92449;-73
2023/02/06 02:55:29;;;;;;;25.30;3.45;;;4.40;99.90;;;;;;4954648;28;92877;-73
2023/02/06 02:58:05;;;;;;;24.00;3.47;;;4.40;99.90;;;;;;4954526;28;96260;-73
2023/02/06 03:00:37;;;;;;;21.52;3.10;;;4.30;99.90;;;;;;4955410;28;92428;-73
2023/02/06 03:03:07;;;;;;;18.60;3.03;;;4.30;99.90;;;;;;4956054;28;92362;-73
2023/02/06 03:05:39;;;;;;;31.05;4.18;;;4.30;99.90;;;;;;4954759;28;91885;-73
2023/02/06 03:08:06;;;;;;;28.15;4.07;;;4.30;99.90;;;;;;4955612;28;93226;-73
2023/02/06 03:11:01;;;;;;;32.42;3.90;;;4.30;99.90;;;;;;4954408;28;95502;-73
2023/02/06 03:13:35;;;;;;;17.90;3.53;;;4.40;99.90;;;;;;4953191;28;95526;-73
2023/02/06 03:16:18;;;;;;;20.02;3.70;;;4.30;99.90;;;;;;4954380;28;92464;-73
2023/02/06 03:18:54;;;;;;;22.40;3.92;;;4.30;99.90;;;;;;4937607;28;95865;-73
2023/02/06 03:21:23;;;;;;;21.88;3.92;;;4.40;99.90;;;;;;4937708;28;95717;-73
2023/02/06 03:23:54;;;;;;;23.30;3.47;;;4.30;99.90;;;;;;4955138;28;92495;-73
2023/02/06 03:26:25;;;;;;;25.27;3.78;;;4.30;99.90;;;;;;4955771;28;92373;-73
2023/02/06 03:28:55;;;;;;;27.75;3.80;;;4.30;99.90;;;;;;4953940;28;93229;-73
2023/02/06 03:31:41;;;;;;;31.67;3.97;;;4.30;99.90;;;;;;4938111;28;95869;-73
2023/02/06 03:34:29;;;;;;;20.80;4.10;;;4.30;99.90;;;;;;4955677;28;92643;-73
2023/02/06 03:36:56;;;;;;;21.80;3.80;;;4.30;99.90;;;;;;4955368;28;93037;-73
2023/02/06 03:39:23;;;;;;;29.60;4.28;;;4.30;99.90;;;;;;4955823;28;98430;-73
2023/02/06 03:41:54;;;;;;;20.52;3.38;;;4.30;99.90;;;;;;4957145;28;95747;-73
2023/02/06 03:44:26;;;;;;;32.28;4.30;;;4.30;99.90;;;;;;4958708;28;92451;-73
2023/02/06 03:46:55;;;;;;;23.65;3.95;;;4.30;99.90;;;;;;4940866;28;92471;-73
2023/02/06 03:49:26;;;;;;;23.65;3.45;;;4.20;99.90;;;;;;4956874;28;95876;-73
2023/02/06 03:52:03;;;;;;;29.65;4.00;;;4.20;99.90;;;;;;4957144;28;93072;-73
2023/02/06 03:54:33;;;;;;;30.48;3.80;;;4.20;99.90;;;;;;4957381;28;92507;-73
2023/02/06 03:57:02;;;;;;;23.75;4.10;;;4.10;99.90;;;;;;4958518;28;91744;-73
2023/02/06 03:59:30;;;;;;;23.88;3.45;;;4.10;99.90;;;;;;4940244;28;95196;-73
2023/02/06 04:02:01;;;;;;;29.90;4.10;;;4.10;99.90;;;;;;4958287;28;92969;-74
2023/02/06 04:04:33;;;;;;;26.33;4.25;;;4.10;99.90;;;;;;4955786;28;94913;-73
2023/02/06 04:07:16;;;;;;;14.50;2.85;;;4.00;99.90;;;;;;4958177;28;92445;-73
2023/02/06 04:09:43;;;;;;;28.15;3.38;;;4.00;99.90;;;;;;4956999;28;93361;-73
2023/02/06 04:12:10;;;;;;;22.98;3.67;;;4.00;99.90;;;;;;4956964;28;92435;-73
2023/02/06 04:14:37;;;;;;;28.48;3.47;;;3.90;99.90;;;;;;4958311;28;92364;-73
2023/02/06 04:17:05;;;;;;;29.85;3.47;;;3.90;99.90;;;;;;4957012;28;93645;-72
2023/02/06 04:19:33;;;;;;;24.90;3.80;;;4.00;99.90;;;;;;4957849;28;93415;-73
2023/02/06 04:22:00;;;;;;;20.30;3.55;;;4.00;99.90;;;;;;4958283;28;93073;-72
2023/02/06 04:24:27;;;;;;;26.25;3.50;;;4.00;99.90;;;;;;4958235;28;92347;-73
2023/02/06 04:26:57;;;;;;;21.50;3.45;;;4.00;99.90;;;;;;4956558;28;92530;-73
2023/02/06 04:29:24;;;;;;;22.73;3.13;;;3.90;99.90;;;;;;4956549;28;95756;-72
2023/02/06 04:31:51;;;;;;;17.08;3.00;;;3.90;99.90;;;;;;4939565;28;97670;-73
2023/02/06 04:34:18;;;;;;;20.40;3.15;;;3.90;99.90;;;;;;4940471;28;92475;-73
2023/02/06 04:36:45;;;;;;;18.23;3.25;;;4.00;99.90;;;;;;4956949;28;92993;-73
2023/02/06 04:39:13;;;;;;;19.25;2.55;;;4.00;99.90;;;;;;4957736;28;93361;-73
2023/02/06 04:41:40;;;;;;;20.52;3.10;;;4.00;99.90;;;;;;4956401;28;93543;-73
2023/02/06 04:44:06;;;;;;;20.33;4.07;;;4.00;99.90;;;;;;4923849;28;95278;-72
2023/02/06 04:46:33;;;;;;;17.40;2.88;;;4.00;99.90;;;;;;4958344;28;91825;-73
2023/02/06 04:49:00;;;;;;;18.38;2.70;;;4.10;99.90;;;;;;4922822;28;97028;-73
2023/02/06 04:51:27;;;;;;;18.73;3.58;;;4.10;99.90;;;;;;4956228;28;93045;-73
2023/02/06 04:53:55;;;;;;;15.90;3.30;;;4.10;99.90;;;;;;4938847;28;94863;-73
2023/02/06 04:56:21;;;;;;;23.25;3.97;;;4.10;99.90;;;;;;4956142;28;93225;-73
2023/02/06 04:58:48;;;;;;;22.42;3.80;;;4.20;99.90;;;;;;4957460;28;93627;-73
2023/02/06 05:01:16;;;;;;;20.25;3.45;;;4.20;99.90;;;;;;4955890;28;93136;-73
2023/02/06 05:03:43;;;;;;;27.30;4.40;;;4.20;99.90;;;;;;4957617;28;92788;-73
2023/02/06 05:06:10;;;;;;;15.35;2.78;;;4.30;99.90;;;;;;4957329;28;92579;-72
2023/02/06 05:08:37;;;;;;;21.95;3.50;;;4.30;99.90;;;;;;4955733;28;94881;-72
2023/02/06 05:11:05;;;;;;;24.63;3.30;;;4.30;99.90;;;;;;4957493;28;93041;-72
2023/02/06 05:13:33;;;;;;;26.90;5.78;;;4.30;99.90;;;;;;4956074;28;92541;-72
2023/02/06 05:16:12;;;;;;;29.02;3.38;;;4.40;99.90;;;;;;4956883;28;92897;-72
2023/02/06 05:18:39;;;;;;;28.25;4.40;;;4.40;99.90;;;;;;4954558;28;98431;-73
2023/02/06 05:21:07;;;;;;;20.98;3.13;;;4.40;99.90;;;;;;4939098;28;98187;-73
2023/02/06 05:23:34;;;;;;;16.08;2.63;;;4.40;99.90;;;;;;4957396;28;92517;-73
2023/02/06 05:26:01;;;;;;;22.50;3.40;;;4.40;99.90;;;;;;4957169;28;92869;-73
2023/02/06 05:28:28;;;;;;;22.13;3.08;;;4.50;99.90;;;;;;4955545;28;93110;-73
2023/02/06 05:30:56;;;;;;;23.63;3.58;;;4.50;99.90;;;;;;4956813;28;92968;-72
2023/02/06 05:33:26;;;;;;;17.00;3.25;;;4.50;99.90;;;;;;4957192;28;92383;-73
2023/02/06 05:35:53;;;;;;;18.90;2.92;;;4.50;99.90;;;;;;4957373;28;91646;-72
2023/02/06 05:38:20;;;;;;;20.42;3.58;;;4.50;99.90;;;;;;4957094;28;93449;-73
2023/02/06 05:40:50;;;;;;;23.02;2.97;;;4.50;99.90;;;;;;4956767;28;92462;-73
2023/02/06 05:43:17;;;;;;;23.30;3.65;;;4.50;99.90;;;;;;4954189;28;94828;-73
2023/02/06 05:45:44;;;;;;;18.05;3.60;;;4.50;99.90;;;;;;4939245;28;92487;-73
2023/02/06 05:48:11;;;;;;;17.00;2.97;;;4.50;99.90;;;;;;4938814;28;94850;-73
2023/02/06 05:50:38;;;;;;;16.90;2.80;;;4.50;99.90;;;;;;4955294;28;93483;-72
2023/02/06 05:53:14;;;;;;;18.58;3.47;;;4.50;99.90;;;;;;4956804;28;92470;-73
2023/02/06 05:55:41;;;;;;;16.05;2.85;;;4.50;99.90;;;;;;4956709;28;92476;-72
2023/02/06 05:58:08;;;;;;;24.88;3.83;;;4.50;99.90;;;;;;4956440;28;93606;-72
2023/02/06 06:00:34;;;;;;;19.13;3.58;;;4.50;99.90;;;;;;4954715;28;95790;-72
2023/02/06 06:03:01;;;;;;;31.10;3.58;;;4.50;99.90;;;;;;4955198;28;92528;-73
2023/02/06 06:05:28;;;;;;;18.17;4.00;;;4.50;99.90;;;;;;4955391;28;92472;-73
2023/02/06 06:07:55;;;;;;;24.35;3.67;;;4.60;99.90;;;;;;4937444;28;98233;-73
2023/02/06 06:10:22;;;;;;;25.88;3.35;;;4.60;99.90;;;;;;4954682;28;98178;-73
2023/02/06 06:12:49;;;;;;;20.52;3.40;;;4.60;99.90;;;;;;4939087;28;92976;-73
2023/02/06 06:15:16;;;;;;;17.13;3.30;;;4.60;99.90;;;;;;4938698;28;92954;-73
2023/02/06 06:17:43;;;;;;;22.52;3.35;;;4.60;99.90;;;;;;4954996;28;95786;-73
2023/02/06 06:20:11;;;;;;;24.90;3.38;;;4.70;99.90;;;;;;4938774;28;93218;-73
2023/02/06 06:22:38;;;;;;;28.65;4.15;;;4.70;99.90;;;;;;4954860;28;92516;-73
2023/02/06 06:25:05;;;;;;;17.00;3.35;;;4.70;99.90;;;;;;4956517;28;91747;-73
2023/02/06 06:27:33;;;;;;;21.90;3.60;;;4.70;99.90;;;;;;4938846;28;93196;-73
2023/02/06 06:30:00;;;;;;;14.25;2.70;;;4.70;99.90;;;;;;4954852;28;93002;-73
2023/02/06 06:32:29;;;;;;;27.23;3.97;;;4.60;99.90;;;;;;4937851;28;94831;-73
2023/02/06 06:34:56;;;;;;;22.38;3.30;;;4.70;99.90;;;;;;4954758;28;92541;-73
2023/02/06 06:37:23;;;;;;;17.75;3.78;;;4.70;99.90;;;;;;4955887;28;93055;-73
2023/02/06 06:39:50;;;;;;;20.65;4.05;;;4.70;99.90;;;;;;4954513;28;95840;-73
2023/02/06 06:42:17;;;;;;;29.05;3.55;;;4.70;99.90;;;;;;4955837;28;92453;-73
2023/02/06 06:44:44;;;;;;;21.17;3.60;;;4.70;99.90;;;;;;4938634;28;92597;-73
2023/02/06 06:47:11;;;;;;;19.58;3.40;;;4.70;99.90;;;;;;4954538;28;93302;-73
2023/02/06 06:49:38;;;;;;;19.92;3.40;;;4.60;99.90;;;;;;4954567;28;95523;-73
2023/02/06 06:52:05;;;;;;;33.40;5.15;;;4.70;99.90;;;;;;4954597;28;92570;-73
2023/02/06 06:54:50;;;;;;;18.45;3.80;;;4.60;99.90;;;;;;4956256;28;92544;-73
2023/02/06 06:57:19;;;;;;;32.30;9.32;;;4.60;99.90;;;;;;4953941;28;104339;-73
2023/02/06 06:59:46;;;;;;;27.48;8.05;;;4.60;99.90;;;;;;4955369;28;94303;-74
2023/02/06 07:02:13;;;;;;;38.33;8.98;;;4.60;99.90;;;;;;4955654;28;92472;-73
2023/02/06 07:04:40;;;;;;;31.98;6.97;;;4.60;99.90;;;;;;4955873;28;92517;-73
2023/02/06 07:07:08;;;;;;;19.92;5.40;;;4.60;99.90;;;;;;4938138;28;94127;-73
2023/02/06 07:09:35;;;;;;;25.20;6.45;;;4.60;99.90;;;;;;4954372;28;93014;-74
2023/02/06 07:12:02;;;;;;;26.98;7.55;;;4.60;99.90;;;;;;4954431;28;92570;-73
2023/02/06 07:14:29;;;;;;;22.02;6.45;;;4.70;99.90;;;;;;4957903;28;91722;-73
2023/02/06 07:16:56;;;;;;;29.00;5.63;;;4.60;99.90;;;;;;4958851;28;93321;-73
2023/02/06 07:19:23;;;;;;;23.02;4.32;;;4.70;99.90;;;;;;4958837;28;93040;-73
2023/02/06 07:21:50;;;;;;;25.35;5.05;;;4.70;99.90;;;;;;4957986;28;94936;-73
2023/02/06 07:24:16;;;;;;;31.77;11.27;;;4.70;99.90;;;;;;4958464;28;96515;-74
2023/02/06 07:26:44;;;;;;;18.75;6.05;;;4.70;99.90;;;;;;4958320;28;93655;-73
2023/02/06 07:29:11;;;;;;;24.90;8.07;;;4.70;99.90;;;;;;4941121;28;92978;-72
2023/02/06 07:31:38;;;;;;;19.42;5.82;;;4.70;99.90;;;;;;4957741;28;92482;-73
2023/02/06 07:34:05;;;;;;;16.98;5.10;;;4.70;99.90;;;;;;4958938;28;92431;-73
2023/02/06 07:36:32;;;;;;;18.42;4.57;;;4.80;99.90;;;;;;4957209;28;93403;-73
2023/02/06 07:39:01;;;;;;;21.27;4.40;;;4.80;99.90;;;;;;4958876;28;92988;-73
2023/02/06 07:41:28;;;;;;;18.73;3.88;;;4.90;99.90;;;;;;4958629;28;92376;-72
2023/02/06 07:43:55;;;;;;;27.45;3.75;;;4.90;99.90;;;;;;4940917;28;92480;-73
2023/02/06 07:46:22;;;;;;;18.65;3.33;;;4.90;99.90;;;;;;4955943;28;95616;-73
2023/02/06 07:48:49;;;;;;;20.73;4.35;;;5.00;99.90;;;;;;4957099;28;95468;-73
2023/02/06 07:51:16;;;;;;;20.10;4.18;;;5.00;99.90;;;;;;4958568;28;93017;-73
2023/02/06 07:53:43;;;;;;;24.83;4.75;;;5.10;99.90;;;;;;4957148;28;92455;-73
2023/02/06 07:56:22;;;;;;;22.88;4.85;;;5.10;99.90;;;;;;4957164;28;93093;-73
2023/02/06 07:58:50;;;;;;;19.25;3.72;;;5.30;99.90;;;;;;4957200;28;92962;-72
2023/02/06 08:01:18;;;;;;;27.98;4.22;;;5.20;99.90;;;;;;4957605;28;92369;-72
2023/02/06 08:03:48;;;;;;;21.50;3.85;;;5.30;99.90;;;;;;4957230;28;92149;-73
2023/02/06 08:06:16;;;;;;;23.48;4.22;;;5.40;99.90;;;;;;4956586;28;96628;-72
2023/02/06 08:08:44;;;;;;;22.80;3.78;;;5.40;99.90;;;;;;4956959;28;93267;-73
2023/02/06 08:11:17;;;;;;;22.83;4.93;;;5.50;99.90;;;;;;4955894;28;94820;-73
2023/02/06 08:13:45;;;;;;;24.42;4.03;;;5.50;99.90;;;;;;4957302;28;92452;-73
2023/02/06 08:16:18;;;;;;;25.40;4.50;;;5.60;99.90;;;;;;4940654;28;93234;-73
2023/02/06 08:18:46;;;;;;;22.25;3.92;;;5.60;99.90;;;;;;4956841;28;95553;-74
2023/02/06 08:21:19;;;;;;;24.63;3.88;;;5.70;99.90;;;;;;4957151;28;92574;-73
2023/02/06 08:23:52;;;;;;;22.23;4.47;;;5.70;99.90;;;;;;4957492;28;92890;-73
2023/02/06 08:26:20;;;;;;;22.80;4.80;;;5.80;99.90;;;;;;4957685;28;93239;-73
2023/02/06 08:28:49;;;;;;;23.95;3.88;;;5.80;99.90;;;;;;4940333;28;100521;-73
2023/02/06 08:31:27;;;;;;;19.42;3.90;;;5.90;99.90;;;;;;4957918;28;92515;-73
2023/02/06 08:33:55;;;;;;;16.40;3.72;;;5.90;99.90;;;;;;4958208;28;92425;-73
2023/02/06 08:36:23;;;;;;;26.33;4.45;;;6.00;99.90;;;;;;4938897;28;96635;-73
2023/02/06 08:38:51;;;;;;;26.55;4.93;;;6.00;99.90;;;;;;4956396;28;95469;-73
2023/02/06 08:41:25;;;;;;;26.85;4.88;;;6.10;99.90;;;;;;4958045;28;92348;-73
2023/02/06 08:43:54;;;;;;;;;;;6.20;99.90;;;;;;4957392;28;92798;-73
2023/02/06 08:46:23;;;;;;;26.33;5.95;;;6.20;99.90;;;;;;4957147;28;95620;-73
2023/02/06 08:49:13;;;;;;;24.52;5.88;;;6.20;99.90;;;;;;4939845;28;95888;-73
2023/02/06 08:51:41;;;;;;;25.20;5.78;;;6.40;99.90;;;;;;4940056;28;93107;-73
2023/02/06 08:54:12;;;;;;;25.20;6.18;;;6.40;99.90;;;;;;4956561;28;91719;-73
2023/02/06 08:56:39;;;;;;;30.17;7.38;;;6.50;99.90;;;;;;4955999;28;95749;-73
2023/02/06 08:59:07;;;;;;;22.55;6.00;;;6.60;99.90;;;;;;4956071;28;93194;-73
2023/02/06 09:01:36;;;;;;;26.42;5.78;;;6.70;99.90;;;;;;4954675;28;94900;-73
2023/02/06 09:04:08;;;;;;;29.95;6.25;;;6.70;99.90;;;;;;4940045;28;92629;-73
2023/02/06 09:06:37;;;;;;;21.10;5.00;;;6.80;99.90;;;;;;4957287;28;93208;-73
2023/02/06 09:09:05;;;;;;;21.15;4.40;;;6.90;99.90;;;;;;4956227;28;93093;-73
2023/02/06 09:11:32;;;;;;;21.35;4.70;;;6.90;99.90;;;;;;4956271;28;92797;-73
2023/02/06 09:14:02;;;;;;;29.40;5.18;;;6.90;99.90;;;;;;4955844;28;92499;-73
2023/02/06 09:16:32;;;;;;;21.77;5.07;;;7.00;99.90;;;;;;4956945;28;93184;-73
2023/02/06 09:19:01;;;;;;;25.42;5.07;;;7.00;99.90;;;;;;4956615;28;93127;-73
2023/02/06 09:21:33;;;;;;;21.27;4.82;;;7.10;99.90;;;;;;4955833;28;92488;-73
2023/02/06 09:24:04;;;;;;;22.60;4.88;;;7.20;99.90;;;;;;4957197;28;92673;-73
2023/02/06 09:26:38;;;;;;;22.55;4.47;;;7.30;99.90;;;;;;4955753;28;96306;-73
2023/02/06 09:29:23;;;;;;;18.70;4.45;;;7.40;99.90;;;;;;4957186;28;95462;-73
2023/02/06 09:31:50;;;;;;;26.35;4.80;;;7.40;99.90;;;;;;4955591;28;92443;-73
2023/02/06 09:34:17;;;;;;;18.98;4.88;;;7.50;99.90;;;;;;4957071;28;92639;-73
2023/02/06 09:36:47;;;;;;;21.30;4.53;;;7.50;99.90;;;;;;4954724;28;96050;-73
2023/02/06 09:39:14;;;;;;;14.40;3.67;;;7.50;99.90;;;;;;4939307;28;93273;-73
2023/02/06 09:41:44;;;;;;;25.17;4.50;;;7.50;99.90;;;;;;4939339;28;93199;-73
2023/02/06 09:44:26;;;;;;;21.17;4.57;;;7.60;99.90;;;;;;4955894;28;91725;-73
2023/02/06 09:47:12;;;;;;;20.55;5.47;;;7.70;99.90;;;;;;4938974;28;96097;-73
2023/02/06 09:49:51;;;;;;;19.30;4.18;;;7.70;99.90;;;;;;4956551;28;93075;-73
2023/02/06 09:52:45;;;;;;;24.23;5.38;;;7.80;99.90;;;;;;4955968;28;95039;-73
2023/02/06 09:55:30;;;;;;;24.63;4.90;;;7.80;99.90;;;;;;4955751;28;92370;-73
2023/02/06 09:58:02;;;;;;;;;;;7.90;99.90;;;;;;4957356;28;93309;-73
2023/02/06 10:00:46;;;;;;;14.57;4.95;;;7.90;99.90;;;;;;4957431;28;92617;-73
2023/02/06 10:03:35;;;;;;;23.83;6.50;;;8.00;99.90;;;;;;4939403;28;92546;-73
2023/02/06 10:06:11;;;;;;;19.55;6.30;;;8.00;99.90;;;;;;4956692;28;92525;-74
2023/02/06 10:08:42;;;;;;;35.22;8.07;;;8.10;99.90;;;;;;4955009;28;95994;-73
2023/02/06 10:12:05;;;;;;;32.78;10.48;;;8.10;99.90;;;;;;4956759;28;92863;-73
2023/02/06 10:14:58;;;;;;;30.15;9.00;;;8.20;99.90;;;;;;4908280;28;92618;-73
2023/02/06 10:17:29;;;;;;;30.98;7.72;;;8.20;99.90;;;;;;4956630;28;92388;-73
2023/02/06 10:20:15;;;;;;;25.70;6.70;;;8.20;99.90;;;;;;4953368;28;98206;-73
2023/02/06 10:23:12;;;;;;;23.90;6.15;;;8.40;99.90;;;;;;4956224;28;95575;-73
2023/02/06 10:25:54;;;;;;;17.90;5.15;;;8.50;99.90;;;;;;4955253;28;92508;-73
2023/02/06 10:28:30;;;;;;;33.47;6.95;;;8.60;99.90;;;;;;4956379;28;92480;-73
2023/02/06 10:31:24;;;;;;;28.90;5.63;;;8.60;99.90;;;;;;4954496;28;93082;-73
2023/02/06 10:34:10;;;;;;;24.98;5.28;;;8.60;99.90;;;;;;4954358;28;96186;-73
2023/02/06 10:36:55;;;;;;;22.42;6.55;;;8.60;99.90;;;;;;4955106;28;92537;-73
2023/02/06 10:39:43;;;;;;;25.25;5.63;;;8.70;99.90;;;;;;4956690;28;91708;-73
2023/02/06 10:42:33;;;;;;;26.83;5.47;;;8.90;99.90;;;;;;4938461;28;96223;-73
2023/02/06 10:45:27;;;;;;;29.70;6.30;;;8.90;99.90;;;;;;4954384;28;95632;-73
2023/02/06 10:48:24;;;;;;;18.73;5.80;;;8.90;99.90;;;;;;4956216;28;94848;-73
2023/02/06 10:50:59;;;;;;;25.35;6.05;;;8.90;99.90;;;;;;4953788;28;92500;-73
2023/02/06 10:53:34;;;;;;;26.25;6.57;;;8.90;99.90;;;;;;4959337;28;93264;-73
2023/02/06 10:56:09;;;;;;;25.88;5.97;;;9.00;99.90;;;;;;4959275;28;93746;-73
2023/02/06 10:58:52;;;;;;;23.73;6.07;;;9.10;99.90;;;;;;4959647;28;92448;-73
2023/02/06 11:01:21;;;;;;;23.00;6.22;;;9.00;99.90;;;;;;4959242;28;92503;-73
2023/02/06 11:04:19;;;;;;;24.80;6.80;;;9.00;99.90;;;;;;4942716;28;93276;-74
2023/02/06 11:06:46;;;;;;;20.73;5.40;;;9.10;99.90;;;;;;4951038;28;95642;-73
2023/02/06 11:09:14;;;;;;;24.85;6.60;;;9.10;99.90;;;;;;4958225;28;93022;-74
2023/02/06 11:11:46;;;;;;;28.58;6.20;;;9.40;99.90;;;;;;4958831;28;92491;-73
2023/02/06 11:14:26;;;;;;;21.88;6.07;;;9.60;99.90;;;;;;4958029;28;95614;-73
2023/02/06 11:16:56;;;;;;;16.30;3.95;;;9.70;99.90;;;;;;4957453;28;98106;-73
2023/02/06 11:19:29;;;;;;;18.77;3.83;;;9.70;99.90;;;;;;4957771;28;92578;-73
2023/02/06 11:22:07;;;;;;;18.15;3.40;;;9.70;99.90;;;;;;4958999;28;92801;-73
2023/02/06 11:24:36;;;;;;;18.48;3.90;;;9.70;99.90;;;;;;4959048;28;93146;-73
2023/02/06 11:27:16;;;;;;;13.20;3.15;;;9.60;99.90;;;;;;4957037;28;95811;-74
2023/02/06 11:29:48;;;;;;;17.95;3.38;;;9.70;99.90;;;;;;4958978;28;92491;-73
2023/02/06 11:32:44;;;;;;;20.38;4.18;;;9.70;99.90;;;;;;4959431;28;91712;-73
2023/02/06 11:35:46;;;;;;;15.88;3.05;;;9.70;99.90;;;;;;4957731;28;93076;-73
2023/02/06 11:38:20;;;;;;;17.88;3.10;;;9.60;99.90;;;;;;4957516;28;96104;-73
2023/02/06 11:41:13;;;;;;;;;;;9.50;99.90;;;;;;4958228;28;94896;-74
2023/02/06 11:43:40;;;;;;;16.88;3.65;;;9.40;99.90;;;;;;4958797;28;92506;-73
2023/02/06 11:46:25;;;;;;;10.45;2.60;;;9.40;99.90;;;;;;4958395;28;92551;-73
2023/02/06 11:48:55;;;;;;;16.88;3.13;;;9.60;99.90;;;;;;4957192;28;93095;-73
2023/02/06 11:51:23;;;;;;;13.65;2.80;;;9.60;99.90;;;;;;4958571;28;92852;-73
2023/02/06 11:54:21;;;;;;;15.57;4.38;;;9.70;99.90;;;;;;4958208;28;93524;-73
2023/02/06 11:57:02;;;;;;;14.52;2.75;;;9.70;99.90;;;;;;4957241;28;93106;-73
2023/02/06 11:59:33;;;;;;;14.80;3.05;;;9.60;99.90;;;;;;4958298;28;93392;-74
2023/02/06 12:02:05;;;;;;;14.25;2.72;;;9.70;99.90;;;;;;4958726;28;93301;-73
2023/02/06 12:04:38;;;;;;;16.25;3.28;;;9.70;99.90;;;;;;4957463;28;92571;-74
2023/02/06 12:07:29;;;;;;;14.75;3.10;;;9.70;99.90;;;;;;4956723;28;95634;-73
2023/02/06 12:09:56;;;;;;;12.90;3.25;;;9.70;99.90;;;;;;4956352;28;98121;-73
2023/02/06 12:12:29;;;;;;;20.50;3.60;;;9.70;99.90;;;;;;4957013;28;93010;-73
2023/02/06 12:15:05;;;;;;;13.93;3.13;;;9.70;99.90;;;;;;4958310;28;92383;-73
2023/02/06 12:17:58;;;;;;;14.00;3.63;;;9.60;99.90;;;;;;4943122;28;95734;-73
2023/02/06 12:20:33;;;;;;;17.90;4.03;;;9.60;99.90;;;;;;4940408;28;95321;-73
2023/02/06 12:23:20;;;;;;;13.23;2.85;;;9.70;99.90;;;;;;4940456;28;92399;-73
2023/02/06 12:25:51;;;;;;;17.33;2.90;;;9.70;99.90;;;;;;4940930;28;92116;-73
2023/02/06 12:28:24;;;;;;;13.30;3.90;;;9.70;99.90;;;;;;4958097;28;93600;-73
2023/02/06 12:30:56;;;;;;;9.77;2.57;;;9.80;99.90;;;;;;4956449;28;93424;-73
2023/02/06 12:33:32;;;;;;;10.82;2.60;;;9.80;99.90;;;;;;4955487;28;95766;-73
2023/02/06 12:36:24;;;;;;;9.93;2.88;;;9.80;99.90;;;;;;4957682;28;92608;-73
2023/02/06 12:39:26;;;;;;;15.25;2.70;;;9.90;99.90;;;;;;4956690;28;93013;-73
2023/02/06 12:42:19;;;;;;;16.45;2.95;;;9.90;99.90;;;;;;4955601;28;92731;-73
2023/02/06 12:44:54;;;;;;;13.77;2.92;;;10.00;99.90;;;;;;4956392;28;92529;-73
2023/02/06 12:47:37;;;;;;;14.13;2.60;;;10.00;99.90;;;;;;4957604;28;92529;-73
2023/02/06 12:50:32;;;;;;;12.00;3.03;;;10.00;99.90;;;;;;4957437;28;92514;-73
2023/02/06 12:53:12;;;;;;;12.23;3.55;;;10.20;99.90;;;;;;4957458;28;92217;-74
2023/02/06 12:56:02;;;;;;;16.20;2.85;;;10.30;99.90;;;;;;4957497;28;92351;-74
2023/02/06 12:58:44;;;;;;;10.93;2.20;;;10.50;99.90;;;;;;4957988;28;92402;-74
2023/02/06 13:01:32;;;;;;;5.75;1.42;;;10.60;99.90;;;;;;4954098;28;94964;-74
2023/02/06 13:04:17;;;;;;;9.20;1.90;;;10.50;99.90;;;;;;4955495;28;98098;-74
2023/02/06 13:06:53;;;;;;;10.15;1.98;;;10.30;99.90;;;;;;4956058;28;93342;-74
2023/02/06 13:09:31;;;;;;;5.93;1.88;;;10.20;99.90;;;;;;4956977;28;92425;-74
2023/02/06 13:12:13;;;;;;;10.95;2.10;;;10.10;99.90;;;;;;4956435;28;93252;-74
2023/02/06 13:15:05;;;;;;;5.60;1.60;;;10.10;99.90;;;;;;4957376;28;93056;-74
2023/02/06 13:17:35;;;;;;;11.45;2.08;;;10.10;99.90;;;;;;4957192;28;92409;-74